sensor_id;sensor_type;location;lat;lon;timestamp;P1;durP1;ratioP1;P2;durP2;ratioP2
10605;SDS011;5350;42.698;23.148;2024-01-10T00:01:37;3.43;;;1.63;;
10605;SDS011;5350;42.698;23.148;2024-01-10T00:04:05;1.97;;;1.60;;
10605;SDS011;5350;42.698;23.148;2024-01-10T00:06:33;2.60;;;1.77;;
10605;SDS011;5350;42.698;23.148;2024-01-10T00:09:00;3.43;;;2.10;;
10605;SDS011;5350;42.698;23.148;2024-01-10T00:11:27;3.13;;;1.80;;
10605;SDS011;5350;42.698;23.148;2024-01-10T00:13:54;3.77;;;2.17;;
10605;SDS011;5350;42.698;23.148;2024-01-10T00:16:24;3.07;;;1.87;;
10605;SDS011;5350;42.698;23.148;2024-01-10T00:18:51;1.93;;;1.40;;
10605;SDS011;5350;42.698;23.148;2024-01-10T00:21:18;2.87;;;1.27;;
10605;SDS011;5350;42.698;23.148;2024-01-10T00:23:46;3.40;;;1.73;;
10605;SDS011;5350;42.698;23.148;2024-01-10T00:26:13;2.50;;;1.63;;
10605;SDS011;5350;42.698;23.148;2024-01-10T00:28:40;6.10;;;2.87;;
10605;SDS011;5350;42.698;23.148;2024-01-10T00:31:07;5.73;;;3.00;;
10605;SDS011;5350;42.698;23.148;2024-01-10T00:33:33;2.47;;;1.87;;
10605;SDS011;5350;42.698;23.148;2024-01-10T00:36:00;5.47;;;2.43;;
10605;SDS011;5350;42.698;23.148;2024-01-10T00:38:27;2.97;;;2.00;;
10605;SDS011;5350;42.698;23.148;2024-01-10T00:40:55;3.47;;;2.30;;
10605;SDS011;5350;42.698;23.148;2024-01-10T00:43:22;2.63;;;1.50;;
10605;SDS011;5350;42.698;23.148;2024-01-10T00:45:49;4.10;;;1.60;;
10605;SDS011;5350;42.698;23.148;2024-01-10T00:48:15;6.40;;;1.90;;
10605;SDS011;5350;42.698;23.148;2024-01-10T00:50:43;3.60;;;2.03;;
10605;SDS011;5350;42.698;23.148;2024-01-10T00:53:10;7.53;;;1.70;;
10605;SDS011;5350;42.698;23.148;2024-01-10T00:55:37;3.53;;;1.43;;
10605;SDS011;5350;42.698;23.148;2024-01-10T00:58:05;2.37;;;1.53;;
10605;SDS011;5350;42.698;23.148;2024-01-10T01:00:32;3.00;;;1.10;;
10605;SDS011;5350;42.698;23.148;2024-01-10T01:02:58;2.77;;;1.60;;
10605;SDS011;5350;42.698;23.148;2024-01-10T01:05:25;2.53;;;1.83;;
10605;SDS011;5350;42.698;23.148;2024-01-10T01:07:52;3.77;;;2.23;;
10605;SDS011;5350;42.698;23.148;2024-01-10T01:10:18;5.00;;;2.27;;
10605;SDS011;5350;42.698;23.148;2024-01-10T01:12:45;3.90;;;1.57;;
10605;SDS011;5350;42.698;23.148;2024-01-10T01:15:13;3.20;;;1.93;;
10605;SDS011;5350;42.698;23.148;2024-01-10T01:17:40;3.40;;;2.00;;
10605;SDS011;5350;42.698;23.148;2024-01-10T01:20:07;3.10;;;1.67;;
10605;SDS011;5350;42.698;23.148;2024-01-10T01:22:34;3.63;;;1.60;;
10605;SDS011;5350;42.698;23.148;2024-01-10T01:25:01;1.63;;;1.30;;
10605;SDS011;5350;42.698;23.148;2024-01-10T01:27:28;1.73;;;1.40;;
10605;SDS011;5350;42.698;23.148;2024-01-10T01:29:54;6.40;;;1.90;;
10605;SDS011;5350;42.698;23.148;2024-01-10T01:32:22;2.83;;;1.40;;
10605;SDS011;5350;42.698;23.148;2024-01-10T01:34:49;4.63;;;2.07;;
10605;SDS011;5350;42.698;23.148;2024-01-10T01:37:16;4.47;;;2.30;;
10605;SDS011;5350;42.698;23.148;2024-01-10T01:39:42;3.07;;;1.77;;
10605;SDS011;5350;42.698;23.148;2024-01-10T01:42:09;4.40;;;2.10;;
10605;SDS011;5350;42.698;23.148;2024-01-10T01:44:36;2.40;;;1.87;;
10605;SDS011;5350;42.698;23.148;2024-01-10T01:47:02;2.93;;;2.00;;
10605;SDS011;5350;42.698;23.148;2024-01-10T01:49:31;2.93;;;2.23;;
10605;SDS011;5350;42.698;23.148;2024-01-10T01:51:58;4.47;;;2.43;;
10605;SDS011;5350;42.698;23.148;2024-01-10T01:54:26;3.87;;;2.17;;
10605;SDS011;5350;42.698;23.148;2024-01-10T01:56:53;3.30;;;2.07;;
10605;SDS011;5350;42.698;23.148;2024-01-10T01:59:20;5.53;;;2.63;;
10605;SDS011;5350;42.698;23.148;2024-01-10T02:01:47;4.50;;;2.37;;
10605;SDS011;5350;42.698;23.148;2024-01-10T02:04:15;5.47;;;2.30;;
10605;SDS011;5350;42.698;23.148;2024-01-10T02:06:44;6.10;;;2.60;;
10605;SDS011;5350;42.698;23.148;2024-01-10T02:09:10;3.63;;;2.47;;
10605;SDS011;5350;42.698;23.148;2024-01-10T02:11:37;4.17;;;2.30;;
10605;SDS011;5350;42.698;23.148;2024-01-10T02:14:04;3.20;;;1.87;;
10605;SDS011;5350;42.698;23.148;2024-01-10T02:16:31;4.93;;;2.70;;
10605;SDS011;5350;42.698;23.148;2024-01-10T02:18:58;4.50;;;2.53;;
10605;SDS011;5350;42.698;23.148;2024-01-10T02:21:26;4.00;;;2.60;;
10605;SDS011;5350;42.698;23.148;2024-01-10T02:23:54;7.30;;;2.53;;
10605;SDS011;5350;42.698;23.148;2024-01-10T02:26:22;6.87;;;2.63;;
10605;SDS011;5350;42.698;23.148;2024-01-10T02:28:49;6.40;;;2.67;;
10605;SDS011;5350;42.698;23.148;2024-01-10T02:31:15;4.77;;;2.70;;
10605;SDS011;5350;42.698;23.148;2024-01-10T02:33:42;6.17;;;3.20;;
10605;SDS011;5350;42.698;23.148;2024-01-10T02:36:09;4.87;;;2.77;;
10605;SDS011;5350;42.698;23.148;2024-01-10T02:38:35;6.83;;;3.40;;
10605;SDS011;5350;42.698;23.148;2024-01-10T02:41:02;6.00;;;2.80;;
10605;SDS011;5350;42.698;23.148;2024-01-10T02:43:30;4.57;;;2.80;;
10605;SDS011;5350;42.698;23.148;2024-01-10T02:45:57;4.60;;;3.00;;
10605;SDS011;5350;42.698;23.148;2024-01-10T02:48:24;4.17;;;1.83;;
10605;SDS011;5350;42.698;23.148;2024-01-10T02:50:51;3.27;;;2.27;;
10605;SDS011;5350;42.698;23.148;2024-01-10T02:53:19;4.57;;;2.37;;
10605;SDS011;5350;42.698;23.148;2024-01-10T02:55:46;2.53;;;1.80;;
10605;SDS011;5350;42.698;23.148;2024-01-10T02:58:14;3.70;;;2.03;;
10605;SDS011;5350;42.698;23.148;2024-01-10T03:00:42;3.83;;;1.90;;
10605;SDS011;5350;42.698;23.148;2024-01-10T03:03:08;3.77;;;2.20;;
10605;SDS011;5350;42.698;23.148;2024-01-10T03:05:36;4.23;;;2.10;;
10605;SDS011;5350;42.698;23.148;2024-01-10T03:08:03;3.27;;;2.00;;
10605;SDS011;5350;42.698;23.148;2024-01-10T03:10:31;3.23;;;2.00;;
10605;SDS011;5350;42.698;23.148;2024-01-10T03:12:58;3.93;;;1.90;;
10605;SDS011;5350;42.698;23.148;2024-01-10T03:15:25;4.17;;;2.20;;
10605;SDS011;5350;42.698;23.148;2024-01-10T03:17:53;3.10;;;2.27;;
10605;SDS011;5350;42.698;23.148;2024-01-10T03:20:19;5.73;;;2.17;;
10605;SDS011;5350;42.698;23.148;2024-01-10T03:22:46;6.07;;;2.73;;
10605;SDS011;5350;42.698;23.148;2024-01-10T03:25:13;4.23;;;2.80;;
10605;SDS011;5350;42.698;23.148;2024-01-10T03:27:39;5.63;;;2.40;;
10605;SDS011;5350;42.698;23.148;2024-01-10T03:30:07;3.27;;;2.60;;
10605;SDS011;5350;42.698;23.148;2024-01-10T03:32:34;2.63;;;1.87;;
10605;SDS011;5350;42.698;23.148;2024-01-10T03:35:02;3.40;;;2.07;;
10605;SDS011;5350;42.698;23.148;2024-01-10T03:37:29;5.23;;;2.13;;
10605;SDS011;5350;42.698;23.148;2024-01-10T03:39:56;4.10;;;2.17;;
10605;SDS011;5350;42.698;23.148;2024-01-10T03:42:24;5.10;;;2.03;;
10605;SDS011;5350;42.698;23.148;2024-01-10T03:44:51;2.90;;;1.80;;
10605;SDS011;5350;42.698;23.148;2024-01-10T03:47:17;3.23;;;1.73;;
10605;SDS011;5350;42.698;23.148;2024-01-10T03:49:44;4.67;;;2.07;;
10605;SDS011;5350;42.698;23.148;2024-01-10T03:52:12;3.13;;;2.23;;
10605;SDS011;5350;42.698;23.148;2024-01-10T03:54:39;3.40;;;1.70;;
10605;SDS011;5350;42.698;23.148;2024-01-10T03:57:06;3.60;;;2.07;;
10605;SDS011;5350;42.698;23.148;2024-01-10T03:59:32;4.37;;;2.03;;
10605;SDS011;5350;42.698;23.148;2024-01-10T04:01:59;3.53;;;1.87;;
10605;SDS011;5350;42.698;23.148;2024-01-10T04:04:27;3.67;;;2.00;;
10605;SDS011;5350;42.698;23.148;2024-01-10T04:06:53;3.97;;;1.93;;
10605;SDS011;5350;42.698;23.148;2024-01-10T04:09:21;4.67;;;2.80;;
10605;SDS011;5350;42.698;23.148;2024-01-10T04:11:48;4.10;;;2.60;;
10605;SDS011;5350;42.698;23.148;2024-01-10T04:14:14;3.23;;;2.20;;
10605;SDS011;5350;42.698;23.148;2024-01-10T04:16:40;3.40;;;2.30;;
10605;SDS011;5350;42.698;23.148;2024-01-10T04:19:07;3.33;;;1.83;;
10605;SDS011;5350;42.698;23.148;2024-01-10T04:21:34;4.03;;;1.90;;
10605;SDS011;5350;42.698;23.148;2024-01-10T04:24:00;2.27;;;1.23;;
10605;SDS011;5350;42.698;23.148;2024-01-10T04:26:28;2.43;;;1.63;;
10605;SDS011;5350;42.698;23.148;2024-01-10T04:28:55;2.77;;;2.27;;
10605;SDS011;5350;42.698;23.148;2024-01-10T04:31:22;39.63;;;20.20;;
10605;SDS011;5350;42.698;23.148;2024-01-10T04:33:48;21.27;;;10.50;;
10605;SDS011;5350;42.698;23.148;2024-01-10T04:36:15;25.27;;;11.87;;
10605;SDS011;5350;42.698;23.148;2024-01-10T04:38:42;3.67;;;1.60;;
10605;SDS011;5350;42.698;23.148;2024-01-10T04:41:08;1.50;;;0.90;;
10605;SDS011;5350;42.698;23.148;2024-01-10T04:43:36;1.93;;;1.10;;
10605;SDS011;5350;42.698;23.148;2024-01-10T04:46:03;2.23;;;1.10;;
10605;SDS011;5350;42.698;23.148;2024-01-10T04:48:30;3.73;;;1.20;;
10605;SDS011;5350;42.698;23.148;2024-01-10T04:50:57;2.90;;;1.40;;
10605;SDS011;5350;42.698;23.148;2024-01-10T04:53:23;2.57;;;1.53;;
10605;SDS011;5350;42.698;23.148;2024-01-10T04:58:58;2.13;;;1.20;;
10605;SDS011;5350;42.698;23.148;2024-01-10T05:01:25;1.30;;;1.10;;
10605;SDS011;5350;42.698;23.148;2024-01-10T05:03:52;4.37;;;1.50;;
10605;SDS011;5350;42.698;23.148;2024-01-10T05:06:19;1.27;;;0.97;;
10605;SDS011;5350;42.698;23.148;2024-01-10T05:08:46;1.93;;;1.10;;
10605;SDS011;5350;42.698;23.148;2024-01-10T05:11:12;1.97;;;1.30;;
10605;SDS011;5350;42.698;23.148;2024-01-10T05:13:41;1.90;;;1.30;;
10605;SDS011;5350;42.698;23.148;2024-01-10T05:16:10;1.57;;;1.37;;
10605;SDS011;5350;42.698;23.148;2024-01-10T05:18:37;2.30;;;1.30;;
10605;SDS011;5350;42.698;23.148;2024-01-10T05:21:04;1.70;;;1.20;;
10605;SDS011;5350;42.698;23.148;2024-01-10T05:23:30;1.37;;;1.27;;
10605;SDS011;5350;42.698;23.148;2024-01-10T05:25:57;2.87;;;1.30;;
10605;SDS011;5350;42.698;23.148;2024-01-10T05:28:24;2.60;;;1.23;;
10605;SDS011;5350;42.698;23.148;2024-01-10T05:30:50;3.20;;;2.07;;
10605;SDS011;5350;42.698;23.148;2024-01-10T05:33:18;2.60;;;1.37;;
10605;SDS011;5350;42.698;23.148;2024-01-10T05:35:46;3.27;;;1.10;;
10605;SDS011;5350;42.698;23.148;2024-01-10T05:38:12;2.23;;;1.20;;
10605;SDS011;5350;42.698;23.148;2024-01-10T05:40:39;2.90;;;1.70;;
10605;SDS011;5350;42.698;23.148;2024-01-10T05:43:15;1.83;;;1.47;;
10605;SDS011;5350;42.698;23.148;2024-01-10T05:45:42;3.43;;;1.50;;
10605;SDS011;5350;42.698;23.148;2024-01-10T05:48:08;2.23;;;1.37;;
10605;SDS011;5350;42.698;23.148;2024-01-10T05:50:36;1.90;;;1.20;;
10605;SDS011;5350;42.698;23.148;2024-01-10T05:53:04;4.70;;;2.90;;
10605;SDS011;5350;42.698;23.148;2024-01-10T05:55:31;3.93;;;2.47;;
10605;SDS011;5350;42.698;23.148;2024-01-10T05:57:57;2.93;;;2.10;;
10605;SDS011;5350;42.698;23.148;2024-01-10T06:00:24;3.43;;;1.90;;
10605;SDS011;5350;42.698;23.148;2024-01-10T06:02:51;4.77;;;2.90;;
10605;SDS011;5350;42.698;23.148;2024-01-10T06:05:17;4.03;;;2.00;;
10605;SDS011;5350;42.698;23.148;2024-01-10T06:07:45;4.90;;;2.40;;
10605;SDS011;5350;42.698;23.148;2024-01-10T06:10:12;12.03;;;5.83;;
10605;SDS011;5350;42.698;23.148;2024-01-10T06:12:39;10.97;;;5.70;;
10605;SDS011;5350;42.698;23.148;2024-01-10T06:15:06;28.70;;;14.23;;
10605;SDS011;5350;42.698;23.148;2024-01-10T06:17:33;36.27;;;15.83;;
10605;SDS011;5350;42.698;23.148;2024-01-10T06:20:00;11.70;;;6.03;;
10605;SDS011;5350;42.698;23.148;2024-01-10T06:22:28;25.43;;;13.57;;
10605;SDS011;5350;42.698;23.148;2024-01-10T06:24:56;16.23;;;8.23;;
10605;SDS011;5350;42.698;23.148;2024-01-10T06:27:23;14.20;;;8.30;;
10605;SDS011;5350;42.698;23.148;2024-01-10T06:29:50;27.63;;;17.00;;
10605;SDS011;5350;42.698;23.148;2024-01-10T06:32:17;14.90;;;8.70;;
10605;SDS011;5350;42.698;23.148;2024-01-10T06:34:43;11.13;;;6.60;;
10605;SDS011;5350;42.698;23.148;2024-01-10T06:37:10;8.03;;;5.00;;
10605;SDS011;5350;42.698;23.148;2024-01-10T06:39:37;6.70;;;3.03;;
10605;SDS011;5350;42.698;23.148;2024-01-10T06:42:05;4.70;;;2.10;;
10605;SDS011;5350;42.698;23.148;2024-01-10T06:44:35;8.80;;;4.30;;
10605;SDS011;5350;42.698;23.148;2024-01-10T06:47:02;9.23;;;4.70;;
10605;SDS011;5350;42.698;23.148;2024-01-10T06:49:29;3.60;;;2.23;;
10605;SDS011;5350;42.698;23.148;2024-01-10T06:51:56;6.23;;;3.30;;
10605;SDS011;5350;42.698;23.148;2024-01-10T06:54:25;4.90;;;2.17;;
10605;SDS011;5350;42.698;23.148;2024-01-10T06:56:51;2.77;;;1.87;;
10605;SDS011;5350;42.698;23.148;2024-01-10T06:59:19;6.00;;;2.90;;
10605;SDS011;5350;42.698;23.148;2024-01-10T07:01:50;8.70;;;5.07;;
10605;SDS011;5350;42.698;23.148;2024-01-10T07:04:22;6.53;;;3.30;;
10605;SDS011;5350;42.698;23.148;2024-01-10T07:06:49;5.10;;;3.63;;
10605;SDS011;5350;42.698;23.148;2024-01-10T07:09:17;2.87;;;1.90;;
10605;SDS011;5350;42.698;23.148;2024-01-10T07:11:45;4.37;;;2.00;;
10605;SDS011;5350;42.698;23.148;2024-01-10T07:14:12;4.47;;;2.60;;
10605;SDS011;5350;42.698;23.148;2024-01-10T07:16:41;4.10;;;1.70;;
10605;SDS011;5350;42.698;23.148;2024-01-10T07:19:10;3.17;;;2.23;;
10605;SDS011;5350;42.698;23.148;2024-01-10T07:21:38;5.17;;;2.00;;
10605;SDS011;5350;42.698;23.148;2024-01-10T07:24:05;5.40;;;2.90;;
10605;SDS011;5350;42.698;23.148;2024-01-10T07:26:33;5.97;;;2.60;;
10605;SDS011;5350;42.698;23.148;2024-01-10T07:29:00;5.73;;;2.40;;
10605;SDS011;5350;42.698;23.148;2024-01-10T07:31:27;5.17;;;2.67;;
10605;SDS011;5350;42.698;23.148;2024-01-10T07:34:13;2.97;;;1.60;;
10605;SDS011;5350;42.698;23.148;2024-01-10T07:36:42;3.50;;;2.33;;
10605;SDS011;5350;42.698;23.148;2024-01-10T07:39:09;4.27;;;1.90;;
10605;SDS011;5350;42.698;23.148;2024-01-10T07:41:36;2.57;;;2.03;;
10605;SDS011;5350;42.698;23.148;2024-01-10T07:44:03;2.50;;;2.23;;
10605;SDS011;5350;42.698;23.148;2024-01-10T07:46:30;2.40;;;1.63;;
10605;SDS011;5350;42.698;23.148;2024-01-10T07:48:56;6.83;;;4.07;;
10605;SDS011;5350;42.698;23.148;2024-01-10T07:51:27;4.37;;;2.20;;
10605;SDS011;5350;42.698;23.148;2024-01-10T07:53:53;9.27;;;3.13;;
10605;SDS011;5350;42.698;23.148;2024-01-10T07:56:20;7.73;;;4.20;;
10605;SDS011;5350;42.698;23.148;2024-01-10T07:58:47;4.83;;;1.37;;
10605;SDS011;5350;42.698;23.148;2024-01-10T08:01:14;3.00;;;1.60;;
10605;SDS011;5350;42.698;23.148;2024-01-10T08:03:41;3.37;;;1.90;;
10605;SDS011;5350;42.698;23.148;2024-01-10T08:06:07;11.40;;;7.33;;
10605;SDS011;5350;42.698;23.148;2024-01-10T08:08:36;4.30;;;3.00;;
10605;SDS011;5350;42.698;23.148;2024-01-10T08:11:03;1.37;;;0.90;;
10605;SDS011;5350;42.698;23.148;2024-01-10T08:13:30;3.57;;;1.70;;
10605;SDS011;5350;42.698;23.148;2024-01-10T08:15:57;1.93;;;1.13;;
10605;SDS011;5350;42.698;23.148;2024-01-10T08:18:24;3.10;;;1.97;;
10605;SDS011;5350;42.698;23.148;2024-01-10T08:20:50;2.47;;;1.40;;
10605;SDS011;5350;42.698;23.148;2024-01-10T08:23:17;2.47;;;1.60;;
10605;SDS011;5350;42.698;23.148;2024-01-10T08:25:45;2.53;;;1.30;;
10605;SDS011;5350;42.698;23.148;2024-01-10T08:28:12;4.37;;;2.17;;
10605;SDS011;5350;42.698;23.148;2024-01-10T08:30:39;4.33;;;1.80;;
10605;SDS011;5350;42.698;23.148;2024-01-10T08:33:06;8.37;;;5.67;;
10605;SDS011;5350;42.698;23.148;2024-01-10T08:35:33;2.83;;;1.90;;
10605;SDS011;5350;42.698;23.148;2024-01-10T08:37:59;2.10;;;1.70;;
10605;SDS011;5350;42.698;23.148;2024-01-10T08:40:29;3.13;;;2.00;;
10605;SDS011;5350;42.698;23.148;2024-01-10T08:42:57;2.90;;;1.83;;
10605;SDS011;5350;42.698;23.148;2024-01-10T08:45:24;1.80;;;1.37;;
10605;SDS011;5350;42.698;23.148;2024-01-10T08:47:51;2.70;;;1.30;;
10605;SDS011;5350;42.698;23.148;2024-01-10T08:50:18;4.13;;;2.20;;
10605;SDS011;5350;42.698;23.148;2024-01-10T08:52:44;2.20;;;1.70;;
10605;SDS011;5350;42.698;23.148;2024-01-10T08:55:11;2.13;;;1.80;;
10605;SDS011;5350;42.698;23.148;2024-01-10T08:57:38;1.57;;;1.40;;
10605;SDS011;5350;42.698;23.148;2024-01-10T09:00:07;2.33;;;1.30;;
10605;SDS011;5350;42.698;23.148;2024-01-10T09:02:37;1.70;;;1.33;;
10605;SDS011;5350;42.698;23.148;2024-01-10T09:05:03;2.47;;;1.60;;
10605;SDS011;5350;42.698;23.148;2024-01-10T09:07:33;2.67;;;1.43;;
10605;SDS011;5350;42.698;23.148;2024-01-10T09:09:59;2.57;;;1.60;;
10605;SDS011;5350;42.698;23.148;2024-01-10T09:12:27;3.13;;;2.00;;
10605;SDS011;5350;42.698;23.148;2024-01-10T09:14:53;1.93;;;1.80;;
10605;SDS011;5350;42.698;23.148;2024-01-10T09:17:22;3.57;;;1.97;;
10605;SDS011;5350;42.698;23.148;2024-01-10T09:19:48;3.90;;;2.20;;
10605;SDS011;5350;42.698;23.148;2024-01-10T09:22:15;2.90;;;1.97;;
10605;SDS011;5350;42.698;23.148;2024-01-10T09:24:42;3.23;;;1.77;;
10605;SDS011;5350;42.698;23.148;2024-01-10T09:27:10;1.90;;;1.40;;
10605;SDS011;5350;42.698;23.148;2024-01-10T09:29:36;3.23;;;1.90;;
10605;SDS011;5350;42.698;23.148;2024-01-10T09:32:03;2.13;;;1.60;;
10605;SDS011;5350;42.698;23.148;2024-01-10T09:34:32;3.17;;;2.17;;
10605;SDS011;5350;42.698;23.148;2024-01-10T09:37:00;3.73;;;1.57;;
10605;SDS011;5350;42.698;23.148;2024-01-10T09:39:27;2.07;;;1.30;;
10605;SDS011;5350;42.698;23.148;2024-01-10T09:41:54;2.50;;;1.60;;
10605;SDS011;5350;42.698;23.148;2024-01-10T09:44:20;2.27;;;1.77;;
10605;SDS011;5350;42.698;23.148;2024-01-10T09:46:48;2.03;;;1.43;;
10605;SDS011;5350;42.698;23.148;2024-01-10T09:49:17;3.47;;;1.80;;
10605;SDS011;5350;42.698;23.148;2024-01-10T09:51:48;3.70;;;2.40;;
10605;SDS011;5350;42.698;23.148;2024-01-10T09:54:16;1.97;;;1.37;;
10605;SDS011;5350;42.698;23.148;2024-01-10T09:56:45;1.63;;;1.30;;
10605;SDS011;5350;42.698;23.148;2024-01-10T09:59:11;1.70;;;1.30;;
10605;SDS011;5350;42.698;23.148;2024-01-10T10:01:38;4.20;;;2.03;;
10605;SDS011;5350;42.698;23.148;2024-01-10T10:04:05;5.53;;;2.80;;
10605;SDS011;5350;42.698;23.148;2024-01-10T10:06:33;7.43;;;4.90;;
10605;SDS011;5350;42.698;23.148;2024-01-10T10:09:02;3.10;;;2.13;;
10605;SDS011;5350;42.698;23.148;2024-01-10T10:11:29;2.00;;;1.37;;
10605;SDS011;5350;42.698;23.148;2024-01-10T10:13:57;2.67;;;1.87;;
10605;SDS011;5350;42.698;23.148;2024-01-10T10:16:39;3.87;;;1.57;;
10605;SDS011;5350;42.698;23.148;2024-01-10T10:19:06;3.97;;;1.67;;
10605;SDS011;5350;42.698;23.148;2024-01-10T10:21:34;1.70;;;1.30;;
10605;SDS011;5350;42.698;23.148;2024-01-10T10:24:03;2.13;;;1.70;;
10605;SDS011;5350;42.698;23.148;2024-01-10T10:26:31;3.47;;;1.60;;
10605;SDS011;5350;42.698;23.148;2024-01-10T10:28:59;2.53;;;1.40;;
10605;SDS011;5350;42.698;23.148;2024-01-10T10:31:27;3.13;;;2.00;;
10605;SDS011;5350;42.698;23.148;2024-01-10T10:33:54;2.60;;;1.67;;
10605;SDS011;5350;42.698;23.148;2024-01-10T10:36:22;3.73;;;1.60;;
10605;SDS011;5350;42.698;23.148;2024-01-10T10:38:49;2.20;;;1.33;;
10605;SDS011;5350;42.698;23.148;2024-01-10T10:41:17;3.53;;;1.70;;
10605;SDS011;5350;42.698;23.148;2024-01-10T10:43:44;1.50;;;1.40;;
10605;SDS011;5350;42.698;23.148;2024-01-10T10:46:11;2.77;;;1.30;;
10605;SDS011;5350;42.698;23.148;2024-01-10T10:48:38;8.23;;;5.30;;
10605;SDS011;5350;42.698;23.148;2024-01-10T10:51:06;3.07;;;1.67;;
10605;SDS011;5350;42.698;23.148;2024-01-10T10:53:34;2.87;;;1.77;;
10605;SDS011;5350;42.698;23.148;2024-01-10T10:56:03;2.40;;;0.90;;
10605;SDS011;5350;42.698;23.148;2024-01-10T10:58:34;22.93;;;12.67;;
10605;SDS011;5350;42.698;23.148;2024-01-10T11:01:04;5.63;;;2.27;;
10605;SDS011;5350;42.698;23.148;2024-01-10T11:03:33;9.70;;;5.37;;
10605;SDS011;5350;42.698;23.148;2024-01-10T11:06:02;19.33;;;10.23;;
10605;SDS011;5350;42.698;23.148;2024-01-10T11:08:29;1.50;;;1.40;;
10605;SDS011;5350;42.698;23.148;2024-01-10T11:11:00;4.13;;;2.23;;
10605;SDS011;5350;42.698;23.148;2024-01-10T11:13:36;13.70;;;7.37;;
10605;SDS011;5350;42.698;23.148;2024-01-10T11:19:20;5.87;;;4.00;;
10605;SDS011;5350;42.698;23.148;2024-01-10T11:22:14;5.07;;;3.40;;
10605;SDS011;5350;42.698;23.148;2024-01-10T11:24:47;4.83;;;2.70;;
10605;SDS011;5350;42.698;23.148;2024-01-10T11:27:14;3.40;;;2.20;;
10605;SDS011;5350;42.698;23.148;2024-01-10T11:29:43;4.27;;;2.57;;
10605;SDS011;5350;42.698;23.148;2024-01-10T11:32:13;3.70;;;2.80;;
10605;SDS011;5350;42.698;23.148;2024-01-10T11:34:48;3.37;;;2.30;;
10605;SDS011;5350;42.698;23.148;2024-01-10T11:37:16;2.60;;;2.20;;
10605;SDS011;5350;42.698;23.148;2024-01-10T11:39:43;5.50;;;3.70;;
10605;SDS011;5350;42.698;23.148;2024-01-10T11:42:10;4.50;;;3.30;;
10605;SDS011;5350;42.698;23.148;2024-01-10T11:47:23;3.33;;;2.23;;
10605;SDS011;5350;42.698;23.148;2024-01-10T11:49:55;3.27;;;2.40;;
10605;SDS011;5350;42.698;23.148;2024-01-10T11:52:22;2.50;;;1.83;;
10605;SDS011;5350;42.698;23.148;2024-01-10T11:54:50;3.23;;;1.97;;
10605;SDS011;5350;42.698;23.148;2024-01-10T11:57:20;3.17;;;2.37;;
10605;SDS011;5350;42.698;23.148;2024-01-10T11:59:50;3.43;;;2.30;;
10605;SDS011;5350;42.698;23.148;2024-01-10T12:02:19;3.17;;;2.30;;
10605;SDS011;5350;42.698;23.148;2024-01-10T12:04:48;4.10;;;2.50;;
10605;SDS011;5350;42.698;23.148;2024-01-10T12:07:16;2.90;;;2.30;;
10605;SDS011;5350;42.698;23.148;2024-01-10T12:09:43;3.87;;;3.33;;
10605;SDS011;5350;42.698;23.148;2024-01-10T12:12:10;4.77;;;3.33;;
10605;SDS011;5350;42.698;23.148;2024-01-10T12:14:39;8.70;;;6.07;;
10605;SDS011;5350;42.698;23.148;2024-01-10T12:17:06;22.80;;;15.03;;
10605;SDS011;5350;42.698;23.148;2024-01-10T12:19:35;5.97;;;3.50;;
10605;SDS011;5350;42.698;23.148;2024-01-10T12:22:02;7.90;;;4.83;;
10605;SDS011;5350;42.698;23.148;2024-01-10T12:24:30;5.60;;;4.67;;
10605;SDS011;5350;42.698;23.148;2024-01-10T12:26:57;6.00;;;3.97;;
10605;SDS011;5350;42.698;23.148;2024-01-10T12:29:24;6.80;;;4.70;;
10605;SDS011;5350;42.698;23.148;2024-01-10T12:31:52;19.77;;;12.60;;
10605;SDS011;5350;42.698;23.148;2024-01-10T12:34:19;9.80;;;5.33;;
10605;SDS011;5350;42.698;23.148;2024-01-10T12:36:48;16.00;;;10.27;;
10605;SDS011;5350;42.698;23.148;2024-01-10T12:39:14;35.90;;;20.83;;
10605;SDS011;5350;42.698;23.148;2024-01-10T12:41:42;22.77;;;13.53;;
10605;SDS011;5350;42.698;23.148;2024-01-10T12:44:10;8.37;;;5.27;;
10605;SDS011;5350;42.698;23.148;2024-01-10T12:46:48;12.50;;;7.07;;
10605;SDS011;5350;42.698;23.148;2024-01-10T12:49:16;6.90;;;4.50;;
10605;SDS011;5350;42.698;23.148;2024-01-10T12:51:43;5.23;;;3.80;;
10605;SDS011;5350;42.698;23.148;2024-01-10T12:54:10;9.20;;;6.00;;
10605;SDS011;5350;42.698;23.148;2024-01-10T12:56:37;11.27;;;8.07;;
10605;SDS011;5350;42.698;23.148;2024-01-10T12:59:04;5.93;;;4.67;;
10605;SDS011;5350;42.698;23.148;2024-01-10T13:01:30;10.93;;;7.07;;
10605;SDS011;5350;42.698;23.148;2024-01-10T13:03:57;6.47;;;5.27;;
10605;SDS011;5350;42.698;23.148;2024-01-10T13:06:24;6.70;;;5.10;;
10605;SDS011;5350;42.698;23.148;2024-01-10T13:08:50;7.93;;;5.43;;
10605;SDS011;5350;42.698;23.148;2024-01-10T13:11:20;8.00;;;5.43;;
10605;SDS011;5350;42.698;23.148;2024-01-10T13:13:47;9.83;;;5.57;;
10605;SDS011;5350;42.698;23.148;2024-01-10T13:16:13;8.93;;;5.80;;
10605;SDS011;5350;42.698;23.148;2024-01-10T13:18:40;9.80;;;6.20;;
10605;SDS011;5350;42.698;23.148;2024-01-10T13:21:07;9.77;;;5.83;;
10605;SDS011;5350;42.698;23.148;2024-01-10T13:23:35;8.53;;;6.10;;
10605;SDS011;5350;42.698;23.148;2024-01-10T13:26:02;9.40;;;5.70;;
10605;SDS011;5350;42.698;23.148;2024-01-10T13:28:30;11.33;;;7.10;;
10605;SDS011;5350;42.698;23.148;2024-01-10T13:30:57;8.00;;;5.73;;
10605;SDS011;5350;42.698;23.148;2024-01-10T13:33:24;9.30;;;6.57;;
10605;SDS011;5350;42.698;23.148;2024-01-10T13:35:51;10.17;;;6.10;;
10605;SDS011;5350;42.698;23.148;2024-01-10T13:38:18;7.73;;;6.00;;
10605;SDS011;5350;42.698;23.148;2024-01-10T13:40:45;9.80;;;5.90;;
10605;SDS011;5350;42.698;23.148;2024-01-10T13:43:12;11.83;;;6.10;;
10605;SDS011;5350;42.698;23.148;2024-01-10T13:45:41;9.50;;;6.87;;
10605;SDS011;5350;42.698;23.148;2024-01-10T13:48:08;10.03;;;7.00;;
10605;SDS011;5350;42.698;23.148;2024-01-10T13:50:36;10.47;;;7.53;;
10605;SDS011;5350;42.698;23.148;2024-01-10T13:53:03;7.50;;;5.30;;
10605;SDS011;5350;42.698;23.148;2024-01-10T13:55:30;12.43;;;5.90;;
10605;SDS011;5350;42.698;23.148;2024-01-10T13:57:57;9.80;;;6.37;;
10605;SDS011;5350;42.698;23.148;2024-01-10T14:00:24;9.83;;;6.10;;
10605;SDS011;5350;42.698;23.148;2024-01-10T14:02:52;7.80;;;5.70;;
10605;SDS011;5350;42.698;23.148;2024-01-10T14:05:23;6.60;;;5.40;;
10605;SDS011;5350;42.698;23.148;2024-01-10T14:07:50;10.13;;;5.77;;
10605;SDS011;5350;42.698;23.148;2024-01-10T14:10:17;7.77;;;5.77;;
10605;SDS011;5350;42.698;23.148;2024-01-10T14:12:44;8.10;;;6.03;;
10605;SDS011;5350;42.698;23.148;2024-01-10T14:15:11;10.73;;;6.30;;
10605;SDS011;5350;42.698;23.148;2024-01-10T14:17:39;8.03;;;6.20;;
10605;SDS011;5350;42.698;23.148;2024-01-10T14:20:08;8.03;;;5.17;;
10605;SDS011;5350;42.698;23.148;2024-01-10T14:22:35;12.30;;;5.87;;
10605;SDS011;5350;42.698;23.148;2024-01-10T14:25:02;10.10;;;5.83;;
10605;SDS011;5350;42.698;23.148;2024-01-10T14:27:30;8.40;;;6.03;;
10605;SDS011;5350;42.698;23.148;2024-01-10T14:29:57;14.13;;;6.83;;
10605;SDS011;5350;42.698;23.148;2024-01-10T14:32:28;11.63;;;6.93;;
10605;SDS011;5350;42.698;23.148;2024-01-10T14:34:55;11.97;;;7.40;;
10605;SDS011;5350;42.698;23.148;2024-01-10T14:37:23;12.07;;;7.67;;
10605;SDS011;5350;42.698;23.148;2024-01-10T14:39:50;11.40;;;8.63;;
10605;SDS011;5350;42.698;23.148;2024-01-10T14:42:17;13.67;;;8.53;;
10605;SDS011;5350;42.698;23.148;2024-01-10T14:44:43;10.43;;;7.37;;
10605;SDS011;5350;42.698;23.148;2024-01-10T14:47:10;13.33;;;9.77;;
10605;SDS011;5350;42.698;23.148;2024-01-10T14:49:37;11.13;;;6.80;;
10605;SDS011;5350;42.698;23.148;2024-01-10T14:52:04;11.83;;;7.67;;
10605;SDS011;5350;42.698;23.148;2024-01-10T14:54:32;14.63;;;9.03;;
10605;SDS011;5350;42.698;23.148;2024-01-10T14:56:59;115.20;;;46.53;;